createdAt,value
2023-01-31T00:01:19.123Z,2.60
2023-01-31T00:06:28.233Z,2.50
2023-01-31T00:11:37.509Z,2.60
2023-01-31T00:16:45.449Z,2.60
2023-01-31T00:21:53.973Z,2.60
2023-01-31T00:27:02.963Z,2.60
2023-01-31T00:32:11.537Z,2.60
2023-01-31T00:37:20.275Z,2.60
2023-01-31T00:42:29.294Z,2.60
2023-01-31T00:47:38.964Z,2.70
2023-01-31T00:52:47.929Z,2.70
2023-01-31T00:57:56.564Z,2.80
2023-01-31T01:03:04.863Z,2.80
2023-01-31T01:08:13.716Z,2.80
2023-01-31T01:13:22.096Z,2.80
2023-01-31T01:18:31.338Z,2.80
2023-01-31T01:23:39.124Z,2.80
2023-01-31T01:28:47.993Z,2.80
2023-01-31T01:33:56.867Z,2.80
2023-01-31T01:39:05.673Z,2.80
2023-01-31T01:44:14.405Z,2.70
2023-01-31T01:49:23.246Z,2.80
2023-01-31T01:54:31.674Z,2.80
2023-01-31T01:59:40.498Z,2.80
2023-01-31T02:04:48.916Z,2.80
2023-01-31T02:09:57.743Z,2.80
2023-01-31T02:15:05.883Z,2.90
2023-01-31T02:20:15.233Z,2.90
2023-01-31T02:25:24.055Z,2.90
2023-01-31T02:30:32.588Z,2.80
2023-01-31T02:35:40.882Z,2.90
2023-01-31T02:40:49.525Z,2.90
2023-01-31T02:45:58.201Z,3.00
2023-01-31T02:51:07.088Z,3.00
2023-01-31T02:56:15.478Z,3.00
2023-01-31T03:01:24.784Z,3.00
2023-01-31T03:06:33.636Z,3.00
2023-01-31T03:11:42.984Z,3.00
2023-01-31T03:16:51.319Z,3.00
2023-01-31T03:21:59.535Z,3.00
2023-01-31T03:27:07.921Z,3.10
2023-01-31T03:32:17.156Z,3.10
2023-01-31T03:37:25.569Z,3.10
2023-01-31T03:42:34.044Z,3.10
2023-01-31T03:47:42.666Z,3.10
2023-01-31T03:52:52.091Z,3.20
2023-01-31T03:58:00.467Z,3.20
2023-01-31T04:03:09.286Z,3.20
2023-01-31T04:08:18.023Z,3.30
2023-01-31T04:13:26.804Z,3.30
2023-01-31T04:18:38.010Z,3.30
2023-01-31T04:23:45.195Z,3.30
2023-01-31T04:28:54.018Z,3.30
2023-01-31T04:34:02.885Z,3.30
2023-01-31T04:39:11.374Z,3.30
2023-01-31T04:44:21.213Z,3.30
2023-01-31T04:49:29.580Z,3.20
2023-01-31T04:54:38.536Z,3.20
2023-01-31T04:59:46.998Z,3.10
2023-01-31T05:04:56.059Z,3.20
2023-01-31T05:10:04.472Z,3.20
2023-01-31T05:15:13.512Z,3.20
2023-01-31T05:20:21.653Z,3.10
2023-01-31T05:25:30.362Z,3.10
2023-01-31T05:30:39.236Z,3.10
2023-01-31T05:35:48.607Z,3.00
2023-01-31T05:40:56.928Z,3.00
2023-01-31T05:46:06.046Z,3.00
2023-01-31T05:51:13.352Z,3.10
2023-01-31T05:56:22.872Z,3.20
2023-01-31T06:01:32.161Z,3.30
2023-01-31T06:06:40.189Z,3.40
2023-01-31T06:11:48.455Z,3.40
2023-01-31T06:16:57.706Z,3.50
2023-01-31T06:22:06.183Z,3.50
2023-01-31T06:27:15.399Z,3.50
2023-01-31T06:32:23.940Z,3.60
2023-01-31T06:37:32.921Z,3.60
2023-01-31T06:42:40.294Z,3.70
2023-01-31T06:47:49.002Z,3.70
2023-01-31T06:52:57.550Z,3.70
2023-01-31T06:58:06.610Z,3.70
2023-01-31T07:03:15.234Z,3.70
2023-01-31T07:08:24.114Z,3.80
2023-01-31T07:13:32.510Z,3.80
2023-01-31T07:18:40.962Z,3.80
2023-01-31T07:23:49.872Z,3.90
2023-01-31T07:28:58.623Z,3.90
2023-01-31T07:34:06.863Z,4.00
2023-01-31T07:39:15.369Z,4.00
2023-01-31T07:44:23.774Z,4.10
2023-01-31T07:49:33.123Z,4.30
2023-01-31T07:54:40.423Z,4.50
2023-01-31T07:59:49.633Z,4.80
2023-01-31T08:04:58.134Z,5.10
2023-01-31T08:10:07.044Z,5.30
2023-01-31T08:15:16.076Z,5.40
2023-01-31T08:20:25.295Z,5.40
2023-01-31T08:25:34.029Z,5.40
2023-01-31T08:30:48.304Z,5.20
2023-01-31T08:35:51.451Z,5.10
2023-01-31T08:41:00.720Z,5.20
2023-01-31T08:46:09.416Z,5.20
2023-01-31T08:51:18.173Z,5.40
2023-01-31T08:56:26.644Z,5.60
2023-01-31T09:01:36.089Z,5.80
2023-01-31T09:06:44.460Z,5.80
2023-01-31T09:11:53.003Z,5.60
2023-01-31T09:17:01.404Z,5.50
2023-01-31T09:22:10.426Z,5.60
2023-01-31T09:27:18.941Z,5.70
2023-01-31T09:32:27.493Z,5.80
2023-01-31T09:37:36.044Z,5.70
2023-01-31T09:42:45.694Z,5.70
2023-01-31T09:47:54.285Z,5.70
2023-01-31T09:53:03.122Z,5.70
2023-01-31T09:58:11.601Z,5.70
2023-01-31T10:03:20.682Z,5.60
2023-01-31T10:08:29.528Z,5.60
2023-01-31T10:13:37.384Z,5.60
2023-01-31T10:18:45.723Z,5.60
2023-01-31T10:23:54.613Z,5.60
2023-01-31T10:29:03.380Z,5.60
2023-01-31T10:34:12.287Z,5.50
2023-01-31T10:39:20.481Z,5.50
2023-01-31T10:44:30.017Z,5.60
2023-01-31T10:49:37.470Z,5.60
2023-01-31T10:54:46.151Z,5.80
2023-01-31T10:59:54.798Z,6.00
2023-01-31T11:05:03.714Z,6.10
2023-01-31T11:10:11.856Z,6.20
2023-01-31T11:15:20.235Z,6.40
2023-01-31T11:20:28.910Z,6.50
2023-01-31T11:25:37.679Z,6.40
2023-01-31T11:30:46.298Z,6.40
2023-01-31T11:35:55.207Z,6.30
2023-01-31T11:41:03.996Z,6.10
2023-01-31T11:46:14.103Z,6.10
2023-01-31T11:51:12.252Z,6.10
2023-01-31T11:56:21.275Z,6.10
2023-01-31T12:01:29.752Z,6.20
2023-01-31T12:06:38.710Z,6.20
2023-01-31T12:11:47.916Z,6.00
2023-01-31T12:16:56.494Z,5.90
2023-01-31T12:22:05.001Z,5.80
2023-01-31T12:27:14.165Z,5.80
2023-01-31T12:32:22.987Z,5.70
2023-01-31T12:37:31.826Z,5.80
2023-01-31T12:42:40.473Z,5.80
2023-01-31T12:47:49.485Z,5.80
2023-01-31T12:52:58.245Z,5.80
2023-01-31T12:58:07.311Z,5.80
2023-01-31T13:03:16.108Z,5.80
2023-01-31T13:08:25.071Z,6.00
2023-01-31T13:13:33.451Z,6.10
2023-01-31T13:18:42.681Z,6.00
2023-01-31T13:23:51.266Z,6.00
2023-01-31T13:29:00.343Z,5.90
2023-01-31T13:34:09.125Z,5.90
2023-01-31T13:39:17.793Z,5.90
2023-01-31T13:44:26.379Z,5.80
2023-01-31T13:49:35.603Z,5.70
2023-01-31T13:54:43.971Z,5.70
2023-01-31T13:59:52.829Z,5.60
2023-01-31T14:05:00.996Z,5.50
2023-01-31T14:10:10.354Z,5.40
2023-01-31T14:15:19.099Z,5.40
2023-01-31T14:20:27.200Z,5.30
2023-01-31T14:25:35.874Z,5.20
2023-01-31T14:30:44.849Z,5.10
2023-01-31T14:35:53.943Z,5.00
2023-01-31T14:41:03.336Z,4.80
2023-01-31T14:46:11.743Z,4.70
2023-01-31T14:51:20.406Z,4.60
2023-01-31T14:56:28.777Z,4.50
2023-01-31T15:01:37.769Z,4.50
2023-01-31T15:06:46.423Z,4.50
2023-01-31T15:11:55.466Z,4.40
2023-01-31T15:17:04.040Z,4.40
2023-01-31T15:22:13.252Z,4.40
2023-01-31T15:27:21.698Z,4.30
2023-01-31T15:32:30.352Z,4.30
2023-01-31T15:37:38.807Z,4.30
2023-01-31T15:42:48.076Z,4.30
2023-01-31T15:47:56.890Z,4.40
2023-01-31T15:53:05.739Z,4.40
2023-01-31T15:58:14.045Z,4.40
2023-01-31T16:03:23.104Z,4.30
2023-01-31T16:08:33.118Z,4.40
2023-01-31T16:13:31.768Z,4.40
2023-01-31T16:18:40.156Z,4.30
2023-01-31T16:23:50.499Z,4.20
2023-01-31T16:28:57.535Z,4.20
2023-01-31T16:34:06.529Z,4.20
2023-01-31T16:39:14.824Z,4.20
2023-01-31T16:44:23.903Z,4.20
2023-01-31T16:49:32.276Z,4.20
2023-01-31T16:54:41.246Z,4.20
2023-01-31T16:59:50.033Z,4.20
2023-01-31T17:04:58.543Z,4.20
2023-01-31T17:10:07.023Z,4.10
2023-01-31T17:15:15.969Z,3.80
2023-01-31T17:20:24.553Z,3.60
2023-01-31T17:25:33.470Z,3.40
2023-01-31T17:30:42.179Z,3.30
2023-01-31T17:35:51.094Z,3.30
2023-01-31T17:41:00.056Z,3.20
2023-01-31T17:46:09.048Z,3.30
2023-01-31T17:51:17.643Z,3.20
2023-01-31T17:56:27.779Z,3.20
2023-01-31T18:01:27.100Z,3.20
2023-01-31T18:06:35.531Z,3.20
2023-01-31T18:11:44.699Z,3.30
2023-01-31T18:16:55.248Z,3.30
2023-01-31T18:21:55.488Z,3.40
2023-01-31T18:27:01.965Z,3.50
2023-01-31T18:32:11.072Z,3.60
2023-01-31T18:37:20.100Z,3.70
2023-01-31T18:42:28.813Z,3.70
2023-01-31T18:47:39.167Z,3.80
2023-01-31T18:52:37.879Z,3.80
2023-01-31T18:57:47.058Z,3.70
2023-01-31T19:02:55.963Z,3.70
2023-01-31T19:08:05.007Z,3.70
2023-01-31T19:13:13.497Z,3.70
2023-01-31T19:18:22.298Z,3.70
2023-01-31T19:23:30.720Z,3.70
2023-01-31T19:28:39.429Z,3.60
2023-01-31T19:33:47.957Z,3.50
2023-01-31T19:38:56.823Z,3.40
2023-01-31T19:44:05.388Z,3.30
2023-01-31T19:49:14.439Z,3.20
2023-01-31T19:54:22.929Z,3.10
2023-01-31T19:59:31.883Z,2.90
2023-01-31T20:04:40.185Z,2.70
2023-01-31T20:09:48.547Z,2.60
2023-01-31T20:14:57.041Z,2.50
2023-01-31T20:20:05.600Z,2.40
2023-01-31T20:25:13.864Z,2.30
2023-01-31T20:30:22.503Z,2.20
2023-01-31T20:35:30.759Z,2.20
2023-01-31T20:40:39.635Z,2.20
2023-01-31T20:45:47.947Z,2.20
2023-01-31T20:50:56.314Z,2.20
2023-01-31T20:56:04.851Z,2.20
2023-01-31T21:01:13.753Z,2.10
2023-01-31T21:06:22.163Z,2.00
2023-01-31T21:11:30.993Z,1.70
2023-01-31T21:16:39.461Z,1.70
2023-01-31T21:21:48.297Z,1.80
2023-01-31T21:26:57.031Z,1.80
2023-01-31T21:32:05.835Z,1.80
2023-01-31T21:37:14.354Z,1.70
2023-01-31T21:42:22.683Z,1.70
2023-01-31T21:47:31.174Z,1.80
2023-01-31T21:52:40.193Z,1.90
2023-01-31T21:57:48.823Z,2.00
2023-01-31T22:02:57.783Z,2.10
2023-01-31T22:08:06.184Z,2.20
2023-01-31T22:13:15.391Z,2.20
2023-01-31T22:18:24.041Z,2.30
2023-01-31T22:23:32.759Z,2.40
2023-01-31T22:28:41.333Z,2.40
2023-01-31T22:33:50.139Z,2.50
2023-01-31T22:38:58.592Z,2.60
2023-01-31T22:44:07.181Z,2.60
2023-01-31T22:49:15.558Z,2.70
2023-01-31T22:54:24.773Z,2.70
2023-01-31T22:59:32.954Z,2.70
2023-01-31T23:04:41.801Z,2.70
2023-01-31T23:09:50.043Z,2.70
2023-01-31T23:14:58.664Z,2.60
2023-01-31T23:20:07.181Z,2.60
2023-01-31T23:25:16.196Z,2.70
2023-01-31T23:30:24.837Z,2.70
2023-01-31T23:35:33.665Z,2.70
2023-01-31T23:40:42.203Z,2.80
2023-01-31T23:45:50.938Z,2.90
2023-01-31T23:50:59.266Z,2.90
2023-01-31T23:56:08.018Z,2.90
